Time;durP1;ratioP1;P1;durP2;ratioP2;P2;SDS_P1;SDS_P2;PMS_P1;PMS_P2;Temp;Humidity;BMP_temperature;BMP_pressure;BME280_temperature;BME280_humidity;BME280_pressure;Samples;Min_cycle;Max_cycle;Signal;HPM_P1;HPM_P2
2023/05/01 00:02:04;;;;;;;23.15;19.60;;;;;;;;;;5013072;28;20025;-74
2023/05/01 00:04:29;;;;;;;24.25;18.60;;;;;;;;;;5010971;28;20056;-74
2023/05/01 00:06:54;;;;;;;18.73;16.00;;;;;;;;;;5013343;28;20101;-74
2023/05/01 00:09:20;;;;;;;16.33;14.85;;;;;;;;;;5011289;28;20030;-74
2023/05/01 00:11:45;;;;;;;16.15;14.40;;;;;;;;;;5007661;28;20039;-76
2023/05/01 00:14:11;;;;;;;16.20;14.48;;;;;;;;;;5004872;28;20022;-74
2023/05/01 00:16:36;;;;;;;17.27;15.25;;;;;;;;;;5011367;28;20098;-76
2023/05/01 00:19:03;;;;;;;21.05;18.52;;;;;;;;;;5012230;28;20017;-75
2023/05/01 00:21:29;;;;;;;26.40;23.13;;;;;;;;;;5003827;28;20030;-74
2023/05/01 00:23:55;;;;;;;16.52;14.93;;;;;;;;;;5008819;28;20121;-76
2023/05/01 00:26:20;;;;;;;16.38;14.80;;;;;;;;;;5011334;28;20033;-77
2023/05/01 00:28:45;;;;;;;15.95;14.45;;;;;;;;;;5009782;28;20155;-75
2023/05/01 00:31:11;;;;;;;19.83;17.83;;;;;;;;;;5012827;28;20037;-75
2023/05/01 00:33:36;;;;;;;37.97;30.58;;;;;;;;;;5012165;28;20047;-75
2023/05/01 00:36:02;;;;;;;45.28;37.35;;;;;;;;;;5009958;28;20330;-77
2023/05/01 00:38:27;;;;;;;47.22;37.55;;;;;;;;;;5013111;28;20034;-75
2023/05/01 00:40:53;;;;;;;27.00;22.95;;;;;;;;;;5012661;28;20052;-74
2023/05/01 00:43:18;;;;;;;22.98;20.67;;;;;;;;;;5002657;28;20041;-75
2023/05/01 00:45:47;;;;;;;18.98;17.00;;;;;;;;;;5003188;28;20451;-76
2023/05/01 00:48:13;;;;;;;21.27;18.57;;;;;;;;;;4999093;28;20116;-75
2023/05/01 00:50:38;;;;;;;21.15;17.85;;;;;;;;;;5004761;28;20170;-76
2023/05/01 00:53:04;;;;;;;29.30;24.77;;;;;;;;;;5010787;28;20045;-75
2023/05/01 00:55:30;;;;;;;29.98;25.65;;;;;;;;;;5009054;28;20174;-77
2023/05/01 00:57:56;;;;;;;35.47;30.10;;;;;;;;;;5000833;28;20036;-76
2023/05/01 01:00:23;;;;;;;26.40;23.67;;;;;;;;;;5005062;28;20089;-74
2023/05/01 01:02:48;;;;;;;21.67;19.25;;;;;;;;;;5002367;28;20038;-73
2023/05/01 01:05:14;;;;;;;54.78;42.78;;;;;;;;;;5011048;28;20098;-73
2023/05/01 01:07:49;;;;;;;71.32;47.72;;;;;;;;;;5011033;28;20354;-74
2023/05/01 01:10:34;;;;;;;36.95;28.15;;;;;;;;;;5009755;28;20349;-75
2023/05/01 01:12:59;;;;;;;25.65;22.95;;;;;;;;;;5010748;28;20033;-75
2023/05/01 01:15:33;;;;;;;21.42;19.00;;;;;;;;;;5011288;28;20033;-75
2023/05/01 01:18:06;;;;;;;17.90;16.20;;;;;;;;;;5001183;28;20022;-74
2023/05/01 01:20:50;;;;;;;14.75;13.27;;;;;;;;;;5008453;28;20021;-76
2023/05/01 01:23:18;;;;;;;15.48;13.90;;;;;;;;;;5009033;28;20029;-74
2023/05/01 01:25:54;;;;;;;14.00;12.70;;;;;;;;;;5010300;28;20033;-74
2023/05/01 01:28:32;;;;;;;13.57;12.20;;;;;;;;;;5010356;28;20432;-75
2023/05/01 01:31:16;;;;;;;13.15;11.82;;;;;;;;;;5006334;28;20022;-75
2023/05/01 01:33:56;;;;;;;14.93;13.45;;;;;;;;;;5011041;28;20022;-75
2023/05/01 01:36:21;;;;;;;;;;;;;;;;;;5011358;28;20017;-73
2023/05/01 01:38:52;;;;;;;15.18;13.77;;;;;;;;;;5009414;28;19966;-73
2023/05/01 01:41:20;;;;;;;16.52;14.93;;;;;;;;;;5012346;28;20360;-74
2023/05/01 01:43:49;;;;;;;16.17;14.75;;;;;;;;;;5009486;28;20161;-73
2023/05/01 01:46:16;;;;;;;18.77;16.98;;;;;;;;;;5011235;28;20038;-72
2023/05/01 01:48:42;;;;;;;17.40;15.90;;;;;;;;;;5009135;28;20175;-73
2023/05/01 01:51:11;;;;;;;15.93;14.32;;;;;;;;;;5013652;28;20503;-72
2023/05/01 01:53:38;;;;;;;19.38;16.80;;;;;;;;;;5010022;28;20079;-75
2023/05/01 01:56:05;;;;;;;21.65;19.45;;;;;;;;;;5009494;28;20029;-75
2023/05/01 01:58:30;;;;;;;24.23;21.73;;;;;;;;;;5014590;28;20427;-73
2023/05/01 02:00:56;;;;;;;21.02;18.90;;;;;;;;;;5015960;28;20034;-73
2023/05/01 02:03:22;;;;;;;17.98;16.17;;;;;;;;;;5013742;28;20030;-73
2023/05/01 02:05:49;;;;;;;27.08;24.08;;;;;;;;;;5012731;28;20375;-77
2023/05/01 02:08:15;;;;;;;22.67;20.27;;;;;;;;;;5013392;28;20389;-72
2023/05/01 02:10:42;;;;;;;20.80;18.58;;;;;;;;;;5011047;28;22384;-72
2023/05/01 02:13:08;;;;;;;24.77;22.02;;;;;;;;;;5010788;28;20382;-73
2023/05/01 02:15:33;;;;;;;26.13;23.30;;;;;;;;;;5011271;28;20034;-74
2023/05/01 02:18:01;;;;;;;25.58;22.40;;;;;;;;;;5011939;28;20457;-74
2023/05/01 02:20:27;;;;;;;46.78;37.88;;;;;;;;;;5011126;28;20412;-72
2023/05/01 02:22:52;;;;;;;29.50;24.08;;;;;;;;;;5013321;28;20041;-76
2023/05/01 02:25:18;;;;;;;28.73;22.40;;;;;;;;;;5004311;28;20444;-76
2023/05/01 02:27:49;;;;;;;24.33;21.83;;;;;;;;;;5012744;28;21172;-77
2023/05/01 02:30:15;;;;;;;22.35;19.35;;;;;;;;;;5014751;28;20056;-76
2023/05/01 02:32:41;;;;;;;20.27;18.30;;;;;;;;;;5014405;28;20030;-76
2023/05/01 02:35:06;;;;;;;19.75;17.65;;;;;;;;;;5019030;28;20373;-74
2023/05/01 02:37:32;;;;;;;18.73;16.80;;;;;;;;;;5014397;28;20014;-74
2023/05/01 02:39:57;;;;;;;16.67;14.98;;;;;;;;;;5013301;28;20024;-76
2023/05/01 02:42:24;;;;;;;16.23;14.70;;;;;;;;;;5013314;28;20037;-77
2023/05/01 02:45:10;;;;;;;15.35;14.05;;;;;;;;;;5011132;28;20360;-74
2023/05/01 02:47:40;;;;;;;18.23;16.52;;;;;;;;;;5009638;28;20045;-73
2023/05/01 02:50:06;;;;;;;19.38;17.48;;;;;;;;;;5006860;28;20041;-73
2023/05/01 02:52:32;;;;;;;20.20;18.13;;;;;;;;;;5012794;28;20126;-74
2023/05/01 02:54:57;;;;;;;19.98;18.08;;;;;;;;;;5003967;28;20135;-75
2023/05/01 02:57:22;;;;;;;18.60;15.50;;;;;;;;;;5013856;28;20436;-73
2023/05/01 02:59:48;;;;;;;18.05;16.25;;;;;;;;;;5015924;28;20026;-76
2023/05/01 03:02:14;;;;;;;19.20;16.35;;;;;;;;;;5013792;28;20585;-73
2023/05/01 03:04:40;;;;;;;18.98;17.05;;;;;;;;;;5014466;28;20052;-73
2023/05/01 03:07:05;;;;;;;17.15;15.45;;;;;;;;;;5011211;28;20436;-73
2023/05/01 03:09:31;;;;;;;18.15;16.30;;;;;;;;;;5011646;28;20167;-73
2023/05/01 03:11:56;;;;;;;18.42;15.90;;;;;;;;;;5014155;28;20116;-73
2023/05/01 03:14:22;;;;;;;19.30;17.17;;;;;;;;;;5013224;28;20470;-72
2023/05/01 03:16:47;;;;;;;19.67;17.20;;;;;;;;;;5007940;28;20810;-73
2023/05/01 03:19:13;;;;;;;18.20;16.02;;;;;;;;;;5006792;28;20026;-73
2023/05/01 03:21:38;;;;;;;17.27;15.65;;;;;;;;;;5011421;28;20021;-72
2023/05/01 03:24:03;;;;;;;19.45;15.55;;;;;;;;;;5003934;28;20033;-73
2023/05/01 03:26:29;;;;;;;18.35;16.60;;;;;;;;;;5011671;28;20021;-72
2023/05/01 03:28:54;;;;;;;18.40;16.63;;;;;;;;;;5009805;28;20046;-74
2023/05/01 03:31:20;;;;;;;18.85;16.95;;;;;;;;;;5001318;28;20368;-72
2023/05/01 03:33:46;;;;;;;19.25;17.33;;;;;;;;;;5008119;28;20033;-72
2023/05/01 03:36:12;;;;;;;18.10;16.30;;;;;;;;;;5011881;28;20919;-72
2023/05/01 03:38:37;;;;;;;18.77;16.95;;;;;;;;;;5013166;28;20034;-74
2023/05/01 03:41:04;;;;;;;19.67;17.63;;;;;;;;;;5013872;28;20041;-73
2023/05/01 03:43:30;;;;;;;18.38;16.45;;;;;;;;;;5004837;28;20041;-74
2023/05/01 03:45:56;;;;;;;18.38;16.52;;;;;;;;;;5010829;28;20034;-74
2023/05/01 03:48:21;;;;;;;18.67;16.90;;;;;;;;;;5012003;28;20034;-74
2023/05/01 03:50:46;;;;;;;18.85;16.85;;;;;;;;;;5002854;28;20021;-73
2023/05/01 03:53:12;;;;;;;17.35;15.60;;;;;;;;;;5011985;28;20048;-77
2023/05/01 03:55:38;;;;;;;19.30;17.30;;;;;;;;;;5010794;28;20032;-72
2023/05/01 03:58:04;;;;;;;30.42;25.88;;;;;;;;;;5013165;28;20441;-72
2023/05/01 04:00:31;;;;;;;64.85;45.88;;;;;;;;;;5013414;28;20040;-73
2023/05/01 04:02:56;;;;;;;68.20;50.80;;;;;;;;;;5003927;28;20037;-74
2023/05/01 04:05:21;;;;;;;55.22;40.70;;;;;;;;;;5011504;28;20049;-73
2023/05/01 04:07:47;;;;;;;52.95;41.47;;;;;;;;;;5005015;28;20349;-75
2023/05/01 04:10:12;;;;;;;44.88;36.35;;;;;;;;;;5011519;28;20026;-71
2023/05/01 04:12:38;;;;;;;62.30;52.13;;;;;;;;;;5012504;28;20030;-72
2023/05/01 04:15:03;;;;;;;63.25;47.20;;;;;;;;;;5011041;28;20038;-73
2023/05/01 04:17:28;;;;;;;50.70;40.63;;;;;;;;;;5010037;28;20022;-71
2023/05/01 04:19:54;;;;;;;34.67;28.92;;;;;;;;;;5011408;28;20436;-72
2023/05/01 04:22:20;;;;;;;28.48;25.48;;;;;;;;;;5006001;28;20026;-71
2023/05/01 04:24:46;;;;;;;26.88;24.08;;;;;;;;;;5006172;28;20960;-72
2023/05/01 04:27:11;;;;;;;24.27;21.77;;;;;;;;;;5003986;28;20745;-73
2023/05/01 04:29:36;;;;;;;24.40;21.90;;;;;;;;;;5008635;28;20049;-72
2023/05/01 04:32:02;;;;;;;23.80;21.38;;;;;;;;;;5012824;28;20040;-72
2023/05/01 04:34:28;;;;;;;23.75;21.38;;;;;;;;;;5008673;28;20034;-71
2023/05/01 04:36:56;;;;;;;23.52;21.23;;;;;;;;;;5010036;28;20046;-72
2023/05/01 04:39:21;;;;;;;24.92;22.60;;;;;;;;;;5010499;28;20030;-76
2023/05/01 04:41:46;;;;;;;21.92;18.05;;;;;;;;;;5012735;28;20040;-75
2023/05/01 04:44:12;;;;;;;20.70;18.80;;;;;;;;;;5007621;28;20361;-75
2023/05/01 04:46:37;;;;;;;23.35;20.98;;;;;;;;;;5005912;28;20444;-75
2023/05/01 04:49:02;;;;;;;25.30;22.80;;;;;;;;;;5012878;28;20347;-74
2023/05/01 04:51:28;;;;;;;36.42;31.88;;;;;;;;;;5009201;28;20094;-75
2023/05/01 04:53:54;;;;;;;35.60;31.00;;;;;;;;;;5010369;28;20026;-75
2023/05/01 04:56:20;;;;;;;39.55;33.70;;;;;;;;;;5009540;28;20099;-76
2023/05/01 04:58:45;;;;;;;28.83;26.02;;;;;;;;;;5013109;28;20033;-75
2023/05/01 05:01:10;;;;;;;26.58;23.13;;;;;;;;;;5011369;28;20557;-75
2023/05/01 05:03:36;;;;;;;24.27;21.90;;;;;;;;;;5011510;28;20030;-75
2023/05/01 05:06:02;;;;;;;30.25;26.65;;;;;;;;;;5012927;28;20056;-75
2023/05/01 05:08:28;;;;;;;37.08;29.42;;;;;;;;;;5008908;28;20030;-74
2023/05/01 05:10:57;;;;;;;39.95;34.35;;;;;;;;;;5007077;28;20436;-75
2023/05/01 05:13:23;;;;;;;40.70;33.28;;;;;;;;;;5004340;28;20026;-73
2023/05/01 05:15:48;;;;;;;34.88;29.55;;;;;;;;;;5010134;28;20030;-74
2023/05/01 05:18:13;;;;;;;30.58;26.77;;;;;;;;;;5012127;28;20329;-71
2023/05/01 05:20:38;;;;;;;31.38;27.98;;;;;;;;;;5010372;28;20363;-72
2023/05/01 05:23:04;;;;;;;35.75;29.73;;;;;;;;;;5005304;28;20588;-75
2023/05/01 05:25:29;;;;;;;39.13;30.77;;;;;;;;;;4999175;28;22114;-75
2023/05/01 05:27:54;;;;;;;34.42;30.73;;;;;;;;;;4993836;28;20033;-73
2023/05/01 05:30:20;;;;;;;32.33;28.52;;;;;;;;;;4996960;28;20131;-76
2023/05/01 05:32:46;;;;;;;34.15;30.52;;;;;;;;;;5001441;28;20045;-73
2023/05/01 05:35:11;;;;;;;28.98;26.00;;;;;;;;;;5006469;28;20489;-77
2023/05/01 05:37:37;;;;;;;27.35;24.45;;;;;;;;;;5002869;28;20029;-75
2023/05/01 05:40:02;;;;;;;27.73;24.75;;;;;;;;;;5003573;28;20040;-73
2023/05/01 05:42:28;;;;;;;44.75;37.35;;;;;;;;;;5006035;28;20022;-75
2023/05/01 05:44:53;;;;;;;40.13;33.80;;;;;;;;;;5005754;28;20452;-73
2023/05/01 05:47:18;;;;;;;31.38;28.08;;;;;;;;;;5006218;28;20383;-73
2023/05/01 05:49:44;;;;;;;26.85;23.60;;;;;;;;;;5014253;28;20408;-74
2023/05/01 05:52:09;;;;;;;35.97;28.10;;;;;;;;;;5012371;28;20029;-73
2023/05/01 05:54:35;;;;;;;33.45;25.85;;;;;;;;;;5014414;28;20033;-70
2023/05/01 05:57:02;;;;;;;22.33;19.92;;;;;;;;;;5014416;28;20030;-71
2023/05/01 05:59:27;;;;;;;20.40;18.13;;;;;;;;;;5013563;28;20017;-71
2023/05/01 06:01:53;;;;;;;20.67;18.67;;;;;;;;;;5009781;28;20082;-75
2023/05/01 06:04:18;;;;;;;23.55;20.27;;;;;;;;;;5002297;28;20326;-74
2023/05/01 06:06:43;;;;;;;24.90;21.30;;;;;;;;;;5004119;28;20034;-72
2023/05/01 06:09:10;;;;;;;22.67;18.65;;;;;;;;;;5002497;28;20021;-77
2023/05/01 06:11:35;;;;;;;27.67;21.60;;;;;;;;;;5015259;28;20033;-74
2023/05/01 06:14:01;;;;;;;23.00;19.20;;;;;;;;;;5012919;28;20029;-73
2023/05/01 06:16:27;;;;;;;23.13;20.70;;;;;;;;;;5012223;28;20041;-72
2023/05/01 06:18:52;;;;;;;20.77;18.48;;;;;;;;;;5014151;28;20124;-73
2023/05/01 06:21:17;;;;;;;21.92;17.42;;;;;;;;;;5013897;28;20030;-73
2023/05/01 06:23:43;;;;;;;21.60;18.10;;;;;;;;;;5004029;28;20037;-73
2023/05/01 06:26:08;;;;;;;15.35;13.82;;;;;;;;;;5011765;28;20256;-75
2023/05/01 06:28:34;;;;;;;15.27;13.88;;;;;;;;;;5014200;28;20050;-73
2023/05/01 06:30:59;;;;;;;15.63;14.10;;;;;;;;;;5009201;28;20049;-74
2023/05/01 06:33:25;;;;;;;22.60;18.90;;;;;;;;;;4999986;28;20040;-73
2023/05/01 06:35:50;;;;;;;36.10;29.27;;;;;;;;;;5006883;28;20056;-73
2023/05/01 06:38:15;;;;;;;46.83;32.53;;;;;;;;;;5012514;28;20095;-74
2023/05/01 06:40:41;;;;;;;79.50;52.67;;;;;;;;;;5013864;28;20064;-75
2023/05/01 06:43:07;;;;;;;45.67;33.15;;;;;;;;;;5014977;28;20058;-73
2023/05/01 06:45:32;;;;;;;25.63;14.98;;;;;;;;;;5007669;28;20333;-73
2023/05/01 06:47:58;;;;;;;11.93;10.77;;;;;;;;;;5009448;28;20032;-73
2023/05/01 06:50:23;;;;;;;11.43;10.32;;;;;;;;;;5014244;28;20039;-71
2023/05/01 06:52:48;;;;;;;14.27;11.23;;;;;;;;;;5010670;28;20455;-74
2023/05/01 06:55:14;;;;;;;10.48;9.38;;;;;;;;;;5012651;28;20082;-73
2023/05/01 06:57:40;;;;;;;13.85;12.45;;;;;;;;;;5013060;28;20414;-74
2023/05/01 07:00:05;;;;;;;12.55;11.35;;;;;;;;;;5013923;28;20437;-73
2023/05/01 07:02:31;;;;;;;15.00;13.50;;;;;;;;;;5012182;28;20404;-74
2023/05/01 07:04:56;;;;;;;15.43;13.93;;;;;;;;;;5013512;28;20029;-72
2023/05/01 07:07:22;;;;;;;12.75;11.25;;;;;;;;;;5008754;28;20125;-71
2023/05/01 07:09:47;;;;;;;12.82;11.25;;;;;;;;;;5007644;28;20053;-71
2023/05/01 07:12:13;;;;;;;13.52;10.25;;;;;;;;;;5013193;28;20037;-72
2023/05/01 07:14:40;;;;;;;11.57;10.38;;;;;;;;;;5012220;28;20200;-72
2023/05/01 07:17:05;;;;;;;10.15;9.18;;;;;;;;;;5013399;28;20366;-72
2023/05/01 07:19:31;;;;;;;9.05;8.25;;;;;;;;;;5009967;28;20103;-72
2023/05/01 07:21:56;;;;;;;9.80;8.90;;;;;;;;;;5009536;28;20465;-70
2023/05/01 07:24:21;;;;;;;9.02;8.18;;;;;;;;;;5009610;28;20742;-69
2023/05/01 07:26:47;;;;;;;10.27;9.27;;;;;;;;;;5012735;28;20483;-71
2023/05/01 07:29:15;;;;;;;9.68;8.77;;;;;;;;;;5013443;28;20054;-71
2023/05/01 07:31:40;;;;;;;10.20;9.30;;;;;;;;;;5013456;28;20052;-71
2023/05/01 07:34:06;;;;;;;11.07;10.02;;;;;;;;;;5006004;28;20029;-75
2023/05/01 07:36:32;;;;;;;12.48;11.20;;;;;;;;;;5008114;28;20124;-73
2023/05/01 07:38:58;;;;;;;9.63;8.75;;;;;;;;;;5015337;28;20036;-71
2023/05/01 07:41:24;;;;;;;6.88;6.28;;;;;;;;;;5004618;28;20520;-73
2023/05/01 07:43:49;;;;;;;9.15;8.25;;;;;;;;;;5013145;28;20550;-71
2023/05/01 07:46:15;;;;;;;8.93;8.13;;;;;;;;;;5011324;28;20037;-75
2023/05/01 07:48:40;;;;;;;7.78;6.97;;;;;;;;;;5012689;28;20033;-73
2023/05/01 07:51:05;;;;;;;6.32;5.72;;;;;;;;;;5010803;28;20405;-73
2023/05/01 07:53:31;;;;;;;6.22;5.63;;;;;;;;;;4997002;28;20029;-73
2023/05/01 07:56:03;;;;;;;6.15;5.55;;;;;;;;;;5010097;28;20036;-73
2023/05/01 07:58:29;;;;;;;7.85;5.38;;;;;;;;;;5000039;28;20525;-71
2023/05/01 08:00:55;;;;;;;6.38;5.10;;;;;;;;;;5000513;28;20018;-74
2023/05/01 08:03:20;;;;;;;5.68;5.18;;;;;;;;;;5010244;28;20060;-71
2023/05/01 08:05:46;;;;;;;5.32;4.93;;;;;;;;;;5012644;28;20352;-76
2023/05/01 08:08:12;;;;;;;4.88;4.20;;;;;;;;;;5005024;28;20029;-74
2023/05/01 08:10:37;;;;;;;5.22;4.72;;;;;;;;;;4999650;28;20029;-72
2023/05/01 08:13:02;;;;;;;5.95;4.38;;;;;;;;;;5004986;28;20435;-71
2023/05/01 08:15:28;;;;;;;7.15;4.10;;;;;;;;;;5012111;28;20331;-71
2023/05/01 08:17:53;;;;;;;3.60;3.30;;;;;;;;;;5010972;28;20035;-73
2023/05/01 08:20:18;;;;;;;3.88;3.58;;;;;;;;;;5009560;28;20029;-71
2023/05/01 08:22:44;;;;;;;4.93;3.90;;;;;;;;;;5006887;28;20109;-75
2023/05/01 08:25:09;;;;;;;14.00;10.35;;;;;;;;;;5005448;28;20046;-73
2023/05/01 08:27:34;;;;;;;13.95;11.68;;;;;;;;;;5014865;28;20025;-73
2023/05/01 08:30:00;;;;;;;6.05;5.22;;;;;;;;;;5011723;28;20133;-76
2023/05/01 08:32:25;;;;;;;18.70;14.20;;;;;;;;;;5011445;28;20037;-75
2023/05/01 08:34:51;;;;;;;8.32;7.20;;;;;;;;;;5013624;28;20034;-72
2023/05/01 08:37:17;;;;;;;13.32;11.48;;;;;;;;;;5003879;28;20032;-72
2023/05/01 08:39:43;;;;;;;9.48;6.95;;;;;;;;;;5000337;28;20128;-72
2023/05/01 08:42:08;;;;;;;4.78;4.07;;;;;;;;;;5010936;28;20117;-72
2023/05/01 08:44:36;;;;;;;4.43;4.03;;;;;;;;;;5004807;28;20065;-75
2023/05/01 08:47:14;;;;;;;3.63;3.33;;;;;;;;;;4997760;28;20049;-72
2023/05/01 08:49:40;;;;;;;4.13;3.70;;;;;;;;;;5008057;28;20037;-71
2023/05/01 08:52:06;;;;;;;3.35;2.95;;;;;;;;;;5007441;28;20554;-72
2023/05/01 08:54:32;;;;;;;3.17;2.92;;;;;;;;;;5007099;28;20124;-73
2023/05/01 08:57:04;;;;;;;3.65;3.08;;;;;;;;;;5010515;28;20093;-73
2023/05/01 08:59:32;;;;;;;7.45;6.75;;;;;;;;;;5011456;28;20094;-71
2023/05/01 09:02:03;;;;;;;3.20;2.90;;;;;;;;;;5010642;28;20134;-73
2023/05/01 09:04:31;;;;;;;4.32;3.60;;;;;;;;;;5010280;28;20441;-72
2023/05/01 09:06:59;;;;;;;3.65;3.20;;;;;;;;;;5012421;28;20118;-72
2023/05/01 09:09:25;;;;;;;4.43;3.20;;;;;;;;;;5009880;28;20463;-74
2023/05/01 09:11:50;;;;;;;6.68;4.00;;;;;;;;;;5009855;28;20218;-72
2023/05/01 09:14:16;;;;;;;5.43;4.53;;;;;;;;;;5008399;28;20025;-75
2023/05/01 09:16:41;;;;;;;4.93;4.53;;;;;;;;;;5010699;28;20534;-72
2023/05/01 09:19:07;;;;;;;4.78;4.30;;;;;;;;;;5011265;28;20041;-73
2023/05/01 09:21:32;;;;;;;7.38;3.60;;;;;;;;;;5010365;28;20440;-72
2023/05/01 09:23:58;;;;;;;4.05;3.75;;;;;;;;;;5014046;28;20372;-71
2023/05/01 09:26:23;;;;;;;3.20;2.92;;;;;;;;;;5009844;28;20039;-72
2023/05/01 09:28:50;;;;;;;3.95;3.53;;;;;;;;;;5008441;28;20048;-71
2023/05/01 09:31:27;;;;;;;3.40;3.10;;;;;;;;;;5008715;28;20358;-73
2023/05/01 09:33:59;;;;;;;3.50;3.20;;;;;;;;;;5011494;28;20029;-72
2023/05/01 09:36:29;;;;;;;3.40;3.17;;;;;;;;;;5009197;28;20452;-72
2023/05/01 09:38:59;;;;;;;4.40;3.35;;;;;;;;;;5010814;28;20033;-73
2023/05/01 09:41:25;;;;;;;3.08;2.80;;;;;;;;;;5011665;28;20029;-73
2023/05/01 09:43:54;;;;;;;5.35;2.97;;;;;;;;;;5009776;28;20052;-73
2023/05/01 09:46:19;;;;;;;3.33;2.97;;;;;;;;;;5005372;28;20036;-72
2023/05/01 09:49:11;;;;;;;3.95;3.25;;;;;;;;;;5011603;28;20034;-73
2023/05/01 09:51:37;;;;;;;3.65;3.30;;;;;;;;;;5010464;28;20056;-72
2023/05/01 09:54:03;;;;;;;5.50;2.95;;;;;;;;;;5011173;28;20367;-72
2023/05/01 09:56:30;;;;;;;3.22;2.90;;;;;;;;;;5011487;28;20583;-74
2023/05/01 09:58:57;;;;;;;3.20;2.90;;;;;;;;;;5012875;28;20053;-72
2023/05/01 10:01:38;;;;;;;2.95;2.67;;;;;;;;;;5009169;28;20017;-72
2023/05/01 10:04:04;;;;;;;3.47;3.17;;;;;;;;;;5008836;28;20037;-73
2023/05/01 10:06:29;;;;;;;4.63;3.78;;;;;;;;;;5009660;28;20037;-72
2023/05/01 10:08:55;;;;;;;16.15;7.13;;;;;;;;;;5011426;28;20428;-73
2023/05/01 10:11:21;;;;;;;6.45;4.88;;;;;;;;;;5011180;28;20326;-72
2023/05/01 10:14:04;;;;;;;5.13;3.65;;;;;;;;;;5012787;28;20025;-74
2023/05/01 10:16:29;;;;;;;11.95;4.82;;;;;;;;;;5010739;28;20041;-71
2023/05/01 10:18:58;;;;;;;6.82;3.30;;;;;;;;;;5014123;28;20030;-74
2023/05/01 10:21:24;;;;;;;5.45;3.22;;;;;;;;;;5013659;28;20198;-72
2023/05/01 10:23:50;;;;;;;3.10;2.70;;;;;;;;;;5012452;28;20349;-73
2023/05/01 10:26:16;;;;;;;3.55;3.17;;;;;;;;;;5013075;28;20042;-74
2023/05/01 10:28:43;;;;;;;4.20;3.10;;;;;;;;;;5010518;28;20121;-72
2023/05/01 10:31:10;;;;;;;6.25;3.60;;;;;;;;;;5013005;28;20040;-72
2023/05/01 10:33:35;;;;;;;5.00;3.65;;;;;;;;;;5013041;28;20029;-73
2023/05/01 10:36:01;;;;;;;3.15;2.60;;;;;;;;;;5012789;28;20345;-72
2023/05/01 10:38:32;;;;;;;2.63;2.38;;;;;;;;;;5011030;28;20114;-73
2023/05/01 10:40:58;;;;;;;2.55;2.20;;;;;;;;;;5013520;28;20040;-71
2023/05/01 10:43:28;;;;;;;3.60;2.42;;;;;;;;;;5012326;28;20452;-72
2023/05/01 10:46:08;;;;;;;5.05;2.17;;;;;;;;;;5015419;28;20403;-71
2023/05/01 10:48:37;;;;;;;4.13;2.90;;;;;;;;;;5014431;28;20136;-75
2023/05/01 10:51:21;;;;;;;2.90;2.55;;;;;;;;;;5010189;28;20042;-72
2023/05/01 10:53:47;;;;;;;3.13;2.63;;;;;;;;;;5013635;28;20372;-72
2023/05/01 10:56:25;;;;;;;2.55;2.30;;;;;;;;;;5012055;28;20021;-74
2023/05/01 10:59:03;;;;;;;2.60;2.40;;;;;;;;;;5011837;28;20115;-72
2023/05/01 11:01:38;;;;;;;3.78;2.20;;;;;;;;;;5012567;28;20733;-72
2023/05/01 11:04:07;;;;;;;3.05;2.10;;;;;;;;;;5011228;28;20097;-74
2023/05/01 11:06:32;;;;;;;8.98;7.50;;;;;;;;;;5011332;28;20117;-72
2023/05/01 11:08:58;;;;;;;9.73;8.23;;;;;;;;;;5014537;28;20427;-73
2023/05/01 11:11:23;;;;;;;11.27;10.18;;;;;;;;;;5014948;28;20101;-76
2023/05/01 11:14:04;;;;;;;4.03;3.65;;;;;;;;;;5015655;28;20038;-73
2023/05/01 11:16:32;;;;;;;3.53;2.60;;;;;;;;;;5012327;28;20041;-72
2023/05/01 11:18:58;;;;;;;3.55;2.22;;;;;;;;;;5009404;28;20783;-71
2023/05/01 11:21:32;;;;;;;4.45;3.78;;;;;;;;;;5010657;28;20048;-72
2023/05/01 11:23:58;;;;;;;3.75;3.38;;;;;;;;;;5013595;28;20034;-72
2023/05/01 11:26:23;;;;;;;2.85;2.35;;;;;;;;;;5012842;28;20125;-71
2023/05/01 11:28:52;;;;;;;3.05;2.47;;;;;;;;;;5011219;28;21124;-72
2023/05/01 11:31:18;;;;;;;4.00;2.25;;;;;;;;;;5013827;28;20326;-73
2023/05/01 11:33:43;;;;;;;2.35;2.25;;;;;;;;;;5012445;28;20044;-72
2023/05/01 11:36:09;;;;;;;3.08;2.70;;;;;;;;;;5010333;28;20719;-73
2023/05/01 11:38:34;;;;;;;2.55;2.35;;;;;;;;;;5012047;28;20087;-71
2023/05/01 11:41:00;;;;;;;3.00;2.70;;;;;;;;;;5010227;28;20039;-71
2023/05/01 11:43:26;;;;;;;2.17;1.98;;;;;;;;;;5013810;28;20357;-73
2023/05/01 11:45:53;;;;;;;5.05;2.58;;;;;;;;;;5013332;28;20102;-71
2023/05/01 11:48:19;;;;;;;3.55;2.47;;;;;;;;;;5011048;28;20068;-72
2023/05/01 11:50:45;;;;;;;4.20;3.85;;;;;;;;;;5011255;28;20034;-71
2023/05/01 11:53:11;;;;;;;6.47;5.43;;;;;;;;;;5010991;28;20097;-70
2023/05/01 11:55:38;;;;;;;10.23;9.15;;;;;;;;;;5011595;28;20025;-72
2023/05/01 11:58:04;;;;;;;9.05;5.95;;;;;;;;;;5012860;28;20081;-72
2023/05/01 12:00:30;;;;;;;6.97;4.85;;;;;;;;;;5011512;28;21222;-72
2023/05/01 12:03:00;;;;;;;19.02;4.95;;;;;;;;;;5012861;28;20021;-72
2023/05/01 12:05:26;;;;;;;9.27;4.47;;;;;;;;;;5012944;28;20449;-72
2023/05/01 12:08:04;;;;;;;13.07;8.63;;;;;;;;;;5012865;28;20033;-72
2023/05/01 12:10:29;;;;;;;9.18;5.90;;;;;;;;;;5013053;28;20037;-72
2023/05/01 12:12:55;;;;;;;9.07;4.30;;;;;;;;;;5014178;28;20034;-72
2023/05/01 12:15:20;;;;;;;9.85;6.22;;;;;;;;;;5007720;28;20028;-72
2023/05/01 12:17:47;;;;;;;6.35;5.45;;;;;;;;;;5009768;28;20036;-75
2023/05/01 12:20:12;;;;;;;11.50;8.68;;;;;;;;;;5011454;28;20390;-73
2023/05/01 12:22:47;;;;;;;18.88;15.95;;;;;;;;;;5012062;28;20090;-72
2023/05/01 12:25:15;;;;;;;17.90;15.98;;;;;;;;;;5011459;28;20034;-72
2023/05/01 12:27:43;;;;;;;17.60;15.85;;;;;;;;;;5010850;28;20022;-73
2023/05/01 12:30:09;;;;;;;7.88;6.95;;;;;;;;;;5008145;28;20042;-71
2023/05/01 12:32:34;;;;;;;7.95;6.55;;;;;;;;;;5013323;28;20149;-72
2023/05/01 12:34:59;;;;;;;18.75;13.35;;;;;;;;;;5013577;28;20153;-72
2023/05/01 12:37:31;;;;;;;22.38;18.48;;;;;;;;;;5010625;28;20436;-71
2023/05/01 12:39:56;;;;;;;6.57;5.88;;;;;;;;;;5010901;28;20459;-72
2023/05/01 12:42:22;;;;;;;17.73;15.60;;;;;;;;;;5009157;28;20021;-75
2023/05/01 12:44:47;;;;;;;17.60;15.82;;;;;;;;;;5012081;28;20042;-72
2023/05/01 12:47:13;;;;;;;19.67;17.85;;;;;;;;;;5011215;28;20032;-75
2023/05/01 12:49:39;;;;;;;9.90;7.50;;;;;;;;;;5011775;28;20037;-73
2023/05/01 12:52:06;;;;;;;13.10;11.90;;;;;;;;;;5011358;28;20021;-72
2023/05/01 12:54:38;;;;;;;9.50;8.70;;;;;;;;;;5010114;28;20090;-72
2023/05/01 12:57:07;;;;;;;4.70;4.30;;;;;;;;;;5009528;28;20024;-74
2023/05/01 12:59:32;;;;;;;;;;;;;;;;;;5008106;28;20513;-72
2023/05/01 13:01:58;;;;;;;5.67;4.40;;;;;;;;;;5012201;28;19913;-72
2023/05/01 13:04:23;;;;;;;3.90;3.50;;;;;;;;;;5009007;28;20057;-72
2023/05/01 13:06:49;;;;;;;10.77;8.68;;;;;;;;;;5012067;28;20374;-73
2023/05/01 13:09:16;;;;;;;26.25;21.63;;;;;;;;;;5012197;28;20037;-72
2023/05/01 13:11:41;;;;;;;8.27;7.40;;;;;;;;;;5010598;28;20044;-71
2023/05/01 13:14:07;;;;;;;6.88;6.10;;;;;;;;;;5011722;28;20029;-73
2023/05/01 13:16:33;;;;;;;5.45;4.95;;;;;;;;;;5013048;28;20040;-73
2023/05/01 13:18:58;;;;;;;5.50;4.28;;;;;;;;;;5010162;28;20127;-73
2023/05/01 13:21:25;;;;;;;20.63;18.48;;;;;;;;;;5010876;28;20017;-73
2023/05/01 13:23:57;;;;;;;5.47;4.97;;;;;;;;;;5009621;28;20037;-75
2023/05/01 13:26:27;;;;;;;3.33;2.30;;;;;;;;;;5011895;28;20028;-73
2023/05/01 13:28:53;;;;;;;3.08;2.70;;;;;;;;;;5012236;28;20054;-71
2023/05/01 13:31:18;;;;;;;2.67;2.47;;;;;;;;;;5008356;28;20138;-73
2023/05/01 13:33:43;;;;;;;2.50;2.30;;;;;;;;;;5010279;28;20050;-73
2023/05/01 13:36:13;;;;;;;2.30;2.10;;;;;;;;;;5012060;28;20044;-72
2023/05/01 13:38:38;;;;;;;;;;;;;;;;;;5011713;28;20029;-71
2023/05/01 13:41:04;;;;;;;2.10;2.00;;;;;;;;;;5014780;28;20357;-71
2023/05/01 13:43:30;;;;;;;2.55;2.05;;;;;;;;;;5016535;28;20282;-72
2023/05/01 13:45:59;;;;;;;2.47;2.25;;;;;;;;;;5011091;28;20837;-76
2023/05/01 13:48:24;;;;;;;2.40;2.20;;;;;;;;;;5006945;28;20029;-76
2023/05/01 13:50:50;;;;;;;5.20;3.90;;;;;;;;;;5005594;28;20154;-72
2023/05/01 13:53:15;;;;;;;2.78;2.40;;;;;;;;;;5014297;28;20029;-72
2023/05/01 13:55:41;;;;;;;4.68;2.33;;;;;;;;;;5013196;28;20123;-73
2023/05/01 13:58:06;;;;;;;2.63;2.42;;;;;;;;;;5015639;28;20042;-72
2023/05/01 14:00:32;;;;;;;4.78;3.00;;;;;;;;;;5012247;28;20555;-71
2023/05/01 14:02:58;;;;;;;3.30;2.92;;;;;;;;;;5012789;28;20030;-72
2023/05/01 14:05:27;;;;;;;2.42;2.15;;;;;;;;;;5013814;28;20040;-70
2023/05/01 14:07:56;;;;;;;2.42;2.13;;;;;;;;;;5012639;28;20030;-73
2023/05/01 14:10:26;;;;;;;2.90;2.70;;;;;;;;;;5016366;28;20034;-74
2023/05/01 14:12:54;;;;;;;2.92;2.05;;;;;;;;;;5009706;28;20021;-72
2023/05/01 14:15:23;;;;;;;5.93;2.83;;;;;;;;;;5016052;28;20076;-72
2023/05/01 14:17:48;;;;;;;;;;;;;;;;;;5014475;28;20062;-74
2023/05/01 14:20:13;;;;;;;2.83;2.43;;;;;;;;;;5014640;28;19913;-72
2023/05/01 14:22:51;;;;;;;2.80;2.50;;;;;;;;;;5013194;28;20018;-73
2023/05/01 14:25:21;;;;;;;3.55;3.10;;;;;;;;;;5012491;28;20703;-71
2023/05/01 14:27:46;;;;;;;2.97;2.70;;;;;;;;;;5013785;28;20025;-71